Time;durP1;ratioP1;P1;durP2;ratioP2;P2;SDS_P1;SDS_P2;PMS_P1;PMS_P2;Temp;Humidity;BMP_temperature;BMP_pressure;BME280_temperature;BME280_humidity;BME280_pressure;Samples;Min_cycle;Max_cycle;Signal;HPM_P1;HPM_P2
2021/05/12 00:00:35;;;;;;;27.40;16.40;;;12.50;99.90;;;11.28;100.00;100002.59;4870906;27;20042;-77
2021/05/12 00:02:59;;;;;;;27.65;15.35;;;12.50;99.90;;;11.26;99.89;100007.13;4877320;27;20052;-78
2021/05/12 00:05:25;;;;;;;28.17;15.90;;;12.60;99.90;;;11.35;99.31;100010.97;4876322;27;20484;-77
2021/05/12 00:07:50;;;;;;;26.38;14.93;;;12.50;99.90;;;11.32;100.00;100006.75;4877109;27;20084;-77
2021/05/12 00:10:14;;;;;;;31.73;15.82;;;12.50;99.90;;;11.29;100.00;100013.06;4878100;27;20052;-77
2021/05/12 00:12:37;;;;;;;28.55;15.93;;;12.60;99.90;;;11.27;100.00;100007.03;4879202;27;20154;-77
2021/05/12 00:15:02;;;;;;;29.63;15.30;;;12.50;99.90;;;11.26;100.00;100015.84;4879090;27;20392;-78
2021/05/12 00:17:27;;;;;;;25.08;15.35;;;12.50;99.90;;;11.26;100.00;100026.41;4871620;27;20049;-77
2021/05/12 00:19:55;;;;;;;29.40;16.13;;;12.50;99.90;;;11.28;99.98;100031.59;4876017;27;20037;-77
2021/05/12 00:22:39;;;;;;;27.63;15.15;;;12.50;99.90;;;11.22;100.00;100045.97;4877414;27;20053;-78
2021/05/12 00:25:05;;;;;;;32.30;15.98;;;12.50;99.90;;;11.22;100.00;100055.66;4861307;27;20113;-77
2021/05/12 00:27:28;;;;;;;28.02;15.10;;;12.50;99.90;;;11.19;100.00;100051.44;4876155;27;20045;-77
2021/05/12 00:29:52;;;;;;;27.40;16.15;;;12.40;99.90;;;11.20;100.00;100042.56;4865973;27;20042;-77
2021/05/12 00:32:16;;;;;;;25.20;15.68;;;12.50;99.90;;;11.16;100.00;100054.22;4878559;27;20467;-77
2021/05/12 00:34:40;;;;;;;26.00;15.73;;;12.40;99.90;;;11.11;100.00;100058.94;4876146;27;20053;-77
2021/05/12 00:37:03;;;;;;;31.88;15.77;;;12.40;99.90;;;11.13;100.00;100085.22;4871357;27;20056;-77
2021/05/12 00:39:26;;;;;;;26.27;15.60;;;12.40;99.90;;;11.15;100.00;100096.50;4872872;27;20041;-78
2021/05/12 00:41:51;;;;;;;27.13;16.83;;;13.80;99.90;;;11.14;100.00;100108.81;4878364;27;20049;-77
2021/05/12 00:44:19;;;;;;;27.98;16.48;;;12.40;99.90;;;11.17;100.00;100111.28;4872121;27;20046;-78
2021/05/12 00:46:44;;;;;;;30.90;18.30;;;12.50;99.90;;;11.22;100.00;100108.38;4869288;27;20428;-77
2021/05/12 00:49:11;;;;;;;28.75;17.17;;;12.50;99.90;;;11.20;100.00;100111.09;4883197;27;20088;-77
2021/05/12 00:51:34;;;;;;;34.63;19.20;;;12.50;99.90;;;11.21;100.00;100107.53;4868244;27;20076;-77
2021/05/12 00:53:57;;;;;;;32.78;18.70;;;12.50;99.90;;;11.22;100.00;100103.94;4857057;27;20182;-77
2021/05/12 00:56:20;;;;;;;29.30;18.23;;;12.50;99.90;;;11.23;100.00;100123.22;4868568;27;20052;-78
2021/05/12 00:58:43;;;;;;;34.08;19.35;;;12.50;99.90;;;11.26;100.00;100121.28;4873393;27;20045;-78
2021/05/12 01:01:06;;;;;;;31.02;18.88;;;;;;;11.28;100.00;100123.81;4879853;27;20082;-79
2021/05/12 01:03:30;;;;;;;29.98;18.67;;;12.50;99.90;;;11.29;100.00;100114.97;4909019;27;20410;-77
2021/05/12 01:06:03;;;;;;;32.47;18.00;;;12.50;99.90;;;11.30;100.00;100127.22;4875924;27;20063;-78
2021/05/12 01:08:27;;;;;;;34.22;18.92;;;12.60;99.90;;;11.29;100.00;100123.75;4881617;27;20041;-77
2021/05/12 01:10:58;;;;;;;34.45;18.33;;;12.50;99.90;;;11.29;100.00;100107.94;4873508;27;20544;-76
2021/05/12 01:13:22;;;;;;;35.63;18.38;;;12.50;99.90;;;11.27;100.00;100103.66;4881092;27;20057;-78
2021/05/12 01:15:46;;;;;;;30.33;18.27;;;12.50;99.90;;;11.18;100.00;100106.84;4878042;27;20053;-79
2021/05/12 01:18:14;;;;;;;27.30;18.05;;;12.50;99.90;;;11.19;100.00;100117.31;4923903;27;20045;-80
2021/05/12 01:20:53;;;;;;;30.20;18.15;;;12.40;99.90;;;11.23;100.00;100132.00;4882100;27;20385;-78
2021/05/12 01:23:20;;;;;;;30.80;18.55;;;12.50;99.90;;;11.24;100.00;100115.25;4891490;27;20037;-78
2021/05/12 01:25:43;;;;;;;37.30;21.05;;;12.50;99.90;;;11.24;100.00;100109.97;4910087;27;20035;-77
2021/05/12 01:28:10;;;;;;;35.58;20.90;;;12.50;99.90;;;11.24;100.00;100114.41;4902190;27;20452;-78
2021/05/12 01:30:33;;;;;;;33.38;20.65;;;12.50;99.90;;;11.25;100.00;100098.50;4872073;27;20067;-78
2021/05/12 01:33:00;;;;;;;32.05;20.20;;;12.50;99.90;;;11.23;100.00;100084.56;4880557;27;20057;-79
2021/05/12 01:35:23;;;;;;;36.70;21.05;;;12.50;99.90;;;11.22;100.00;100077.59;4872588;27;20041;-78
2021/05/12 01:37:47;;;;;;;35.92;20.85;;;12.50;99.90;;;11.26;100.00;100076.47;4874094;27;20049;-78
2021/05/12 01:40:11;;;;;;;33.80;20.60;;;12.50;99.90;;;11.29;100.00;100078.06;4873530;27;20053;-78
2021/05/12 01:42:34;;;;;;;35.50;21.13;;;12.50;99.90;;;11.32;100.00;100074.41;4874624;27;21884;-78
2021/05/12 01:45:06;;;;;;;33.50;20.50;;;12.60;99.90;;;11.33;100.00;100071.69;4873992;27;20121;-78
2021/05/12 01:47:29;;;;;;;34.58;20.90;;;12.50;99.90;;;11.31;100.00;100076.19;4874645;27;20399;-77
2021/05/12 01:49:59;;;;;;;34.28;19.15;;;12.50;99.90;;;11.33;100.00;100068.22;4878254;27;20407;-78
2021/05/12 01:52:22;;;;;;;27.35;17.80;;;12.60;99.90;;;11.31;100.00;100078.00;4899280;27;20053;-78
2021/05/12 01:54:46;;;;;;;32.70;18.70;;;12.50;99.90;;;11.27;100.00;100082.59;4876821;27;20041;-78
2021/05/12 01:57:11;;;;;;;34.25;18.55;;;12.50;99.90;;;11.25;100.00;100085.34;4907606;27;20048;-77
2021/05/12 01:59:35;;;;;;;29.63;19.60;;;12.50;99.90;;;11.33;100.00;100107.75;4922137;28;20805;-78
2021/05/12 02:01:58;;;;;;;34.22;20.10;;;12.50;99.90;;;11.27;100.00;100107.19;4895847;27;20064;-79
2021/05/12 02:04:21;;;;;;;32.55;20.60;;;12.60;99.90;;;11.31;100.00;100128.91;4870915;27;20555;-80
2021/05/12 02:06:44;;;;;;;30.52;20.45;;;12.60;99.90;;;11.41;100.00;100145.03;4871885;27;20057;-78
2021/05/12 02:09:09;;;;;;;32.78;19.20;;;12.50;99.90;;;11.31;100.00;100143.88;4876800;27;20492;-78
2021/05/12 02:11:33;;;;;;;35.83;20.25;;;12.40;99.90;;;11.26;100.00;100138.88;4876874;27;20419;-78
2021/05/12 02:14:05;;;;;;;34.42;19.33;;;12.50;99.90;;;11.26;100.00;100138.88;4864598;27;20042;-78
2021/05/12 02:16:28;;;;;;;32.47;19.83;;;12.40;99.90;;;11.20;100.00;100128.69;4876515;27;20113;-79
2021/05/12 02:18:51;;;;;;;39.13;19.38;;;12.40;99.90;;;11.22;100.00;100132.94;4871013;27;20053;-78
2021/05/12 02:21:14;;;;;;;35.38;20.55;;;12.40;99.90;;;11.19;100.00;100138.41;4871582;27;20049;-78
2021/05/12 02:23:37;;;;;;;37.03;21.33;;;12.40;99.90;;;11.17;100.00;100142.06;4878062;27;20046;-78
2021/05/12 02:26:00;;;;;;;36.05;22.65;;;12.40;99.90;;;11.16;100.00;100146.47;4870543;27;20049;-79
2021/05/12 02:28:32;;;;;;;35.92;21.45;;;12.40;99.90;;;11.18;100.00;100152.50;4878332;27;20044;-78
2021/05/12 02:30:55;;;;;;;33.63;22.17;;;12.40;99.90;;;11.20;100.00;100161.16;4876703;27;20076;-77
2021/05/12 02:33:20;;;;;;;36.42;21.85;;;12.40;99.90;;;11.23;100.00;100166.28;4882140;27;20107;-78
2021/05/12 02:35:44;;;;;;;36.53;22.48;;;12.40;99.90;;;11.28;100.00;100166.84;4879088;27;20045;-77
2021/05/12 02:38:08;;;;;;;43.65;23.25;;;12.50;99.90;;;11.33;100.00;100160.44;4883880;27;20052;-77
2021/05/12 02:40:38;;;;;;;38.70;23.98;;;12.60;99.90;;;11.35;100.00;100158.56;4883228;27;20041;-77
2021/05/12 02:43:02;;;;;;;36.85;23.13;;;12.50;99.90;;;11.33;100.00;100171.84;4875964;27;20049;-77
2021/05/12 02:45:28;;;;;;;39.72;24.02;;;12.60;99.90;;;11.38;100.00;100179.47;4888908;27;20052;-79
2021/05/12 02:47:57;;;;;;;45.45;24.95;;;12.60;99.90;;;11.39;100.00;100181.19;4868787;27;20041;-78
2021/05/12 02:50:22;;;;;;;41.45;24.55;;;12.70;99.90;;;11.45;100.00;100180.84;4872959;27;20060;-79
2021/05/12 02:52:45;;;;;;;37.10;22.77;;;12.70;99.90;;;11.47;100.00;100185.06;4873601;27;20053;-78
2021/05/12 02:55:11;;;;;;;41.08;23.00;;;12.70;99.90;;;11.48;100.00;100191.19;4878578;27;20040;-79
2021/05/12 02:57:33;;;;;;;;;;;12.70;99.90;;;11.49;100.00;100198.16;4873000;27;20054;-78
2021/05/12 03:00:07;;;;;;;36.28;20.83;;;12.70;99.90;;;11.49;100.00;100192.91;4874683;27;19989;-77
2021/05/12 03:02:31;;;;;;;40.97;21.10;;;12.70;99.90;;;11.50;100.00;100199.84;4872500;27;20049;-78
2021/05/12 03:05:12;;;;;;;42.08;23.58;;;12.70;99.90;;;11.50;100.00;100211.25;4878493;27;20060;-78
2021/05/12 03:07:35;;;;;;;34.60;21.27;;;12.70;99.90;;;11.51;100.00;100204.16;4868299;27;20046;-77
2021/05/12 03:10:12;;;;;;;38.40;20.20;;;12.70;99.90;;;11.48;100.00;100202.56;4871163;27;20045;-78
2021/05/12 03:12:42;;;;;;;33.90;18.20;;;12.70;99.90;;;11.46;100.00;100203.59;4873073;27;20131;-78
2021/05/12 03:15:09;;;;;;;31.58;16.25;;;12.60;99.90;;;11.45;100.00;100208.03;4871204;27;20053;-78
2021/05/12 03:17:33;;;;;;;28.27;15.38;;;;;;;11.39;100.00;100210.19;4875037;27;20044;-77
2021/05/12 03:19:57;;;;;;;28.10;15.00;;;12.60;99.90;;;11.37;100.00;100202.34;4899777;27;20037;-78
2021/05/12 03:22:20;;;;;;;25.95;15.13;;;12.60;99.90;;;11.39;100.00;100208.38;4883420;27;20045;-78
2021/05/12 03:24:43;;;;;;;31.38;15.50;;;12.60;99.90;;;11.38;100.00;100200.56;4870145;27;20045;-78
2021/05/12 03:27:06;;;;;;;23.13;13.23;;;12.60;99.90;;;11.37;100.00;100198.88;4864846;27;20391;-78
2021/05/12 03:29:30;;;;;;;21.58;12.10;;;12.50;99.90;;;11.26;100.00;100192.44;4881865;27;20038;-77
2021/05/12 03:31:53;;;;;;;19.17;11.50;;;12.40;99.90;;;11.24;100.00;100189.03;4873925;27;20052;-78
2021/05/12 03:34:17;;;;;;;19.92;11.40;;;12.40;99.90;;;11.22;100.00;100205.88;4867228;27;20109;-77
2021/05/12 03:36:40;;;;;;;19.73;11.18;;;12.40;99.90;;;11.19;100.00;100195.53;4866921;27;20046;-78
2021/05/12 03:39:05;;;;;;;22.10;10.60;;;12.40;99.90;;;11.18;100.00;100209.63;4882661;27;20124;-77
2021/05/12 03:41:28;;;;;;;23.98;10.68;;;12.30;99.90;;;11.18;100.00;100218.38;4878141;27;20041;-77
2021/05/12 03:43:52;;;;;;;19.52;10.45;;;12.40;99.90;;;11.17;100.00;100216.69;4871300;27;20116;-78
2021/05/12 03:46:26;;;;;;;16.25;10.60;;;12.40;99.90;;;11.14;100.00;100219.47;4878356;27;20049;-77
2021/05/12 03:48:49;;;;;;;17.88;11.15;;;12.30;99.90;;;11.09;100.00;100222.38;4877137;27;20052;-77
2021/05/12 03:51:13;;;;;;;18.80;11.35;;;12.20;99.90;;;11.03;100.00;100224.50;4876647;27;20041;-77
2021/05/12 03:53:42;;;;;;;23.38;11.98;;;12.20;99.90;;;10.97;100.00;100228.38;4881046;27;20052;-77
2021/05/12 03:56:07;;;;;;;22.98;11.52;;;12.20;99.90;;;10.97;100.00;100230.13;4875598;27;20442;-78
2021/05/12 03:58:33;;;;;;;20.67;10.75;;;12.20;99.90;;;11.01;100.00;100234.28;4872825;27;20127;-78
2021/05/12 04:00:59;;;;;;;21.45;11.50;;;12.20;99.90;;;10.96;100.00;100237.19;4867947;27;20498;-79
2021/05/12 04:03:22;;;;;;;19.17;11.35;;;12.10;99.90;;;10.93;100.00;100237.38;4879893;27;20055;-78
2021/05/12 04:05:47;;;;;;;20.67;10.75;;;12.10;99.90;;;10.94;100.00;100243.47;4864049;27;20038;-79
2021/05/12 04:08:11;;;;;;;23.73;10.90;;;12.10;99.90;;;10.99;100.00;100242.31;4876421;27;20045;-77
2021/05/12 04:10:34;;;;;;;21.13;10.75;;;12.20;99.90;;;11.00;100.00;100240.50;4875059;27;20460;-77
2021/05/12 04:12:57;;;;;;;18.80;10.75;;;12.20;99.90;;;11.01;100.00;100239.56;4872275;27;21980;-78
2021/05/12 04:15:20;;;;;;;19.17;10.77;;;12.20;99.90;;;10.99;100.00;100244.94;4875549;27;20449;-78
2021/05/12 04:17:44;;;;;;;22.30;10.43;;;12.10;99.90;;;10.95;100.00;100248.66;4869704;27;20046;-78
2021/05/12 04:20:12;;;;;;;23.15;10.88;;;12.10;99.90;;;10.95;100.00;100248.66;4874460;27;20044;-79
2021/05/12 04:22:37;;;;;;;19.80;11.63;;;12.20;99.90;;;10.98;100.00;100252.91;4871284;27;20126;-77
2021/05/12 04:25:01;;;;;;;19.75;10.82;;;12.20;99.90;;;10.98;100.00;100247.66;4869095;27;20042;-78
2021/05/12 04:27:24;;;;;;;26.23;11.88;;;12.10;99.90;;;10.85;100.00;100258.00;4879372;27;20045;-78
2021/05/12 04:29:47;;;;;;;22.65;13.07;;;12.00;99.90;;;10.81;100.00;100254.69;4873587;27;20442;-78
2021/05/12 04:32:11;;;;;;;23.08;13.82;;;12.00;99.90;;;10.81;100.00;100248.56;4872049;27;20038;-77
2021/05/12 04:34:35;;;;;;;24.15;13.05;;;12.00;99.90;;;10.78;100.00;100254.88;4861963;27;20118;-79
2021/05/12 04:36:58;;;;;;;28.05;14.43;;;11.90;99.90;;;10.71;100.00;100260.53;4872344;27;20045;-77
2021/05/12 04:39:23;;;;;;;26.73;15.13;;;11.90;99.90;;;10.66;100.00;100266.06;4873758;27;20049;-80
2021/05/12 04:41:47;;;;;;;32.30;16.17;;;11.80;99.90;;;10.64;100.00;100267.94;4868714;27;20041;-77
2021/05/12 04:44:10;;;;;;;32.50;16.67;;;11.80;99.90;;;10.60;100.00;100271.66;4874259;27;20083;-77
2021/05/12 04:46:34;;;;;;;31.15;15.73;;;11.80;99.90;;;10.57;100.00;100271.84;4872287;27;20058;-78
2021/05/12 04:48:57;;;;;;;32.60;16.02;;;11.70;99.90;;;10.56;100.00;100268.34;4873199;27;20092;-77
2021/05/12 04:51:20;;;;;;;30.10;14.82;;;11.70;99.90;;;10.56;100.00;100276.25;4871582;27;20488;-78
2021/05/12 04:53:43;;;;;;;27.83;14.85;;;11.70;99.90;;;10.55;100.00;100279.81;4875667;27;20080;-77
2021/05/12 04:56:06;;;;;;;30.42;14.80;;;11.70;99.90;;;10.57;100.00;100280.56;4859933;27;20136;-77
2021/05/12 04:58:31;;;;;;;25.67;15.43;;;11.70;99.90;;;10.57;100.00;100280.56;4871148;27;20055;-78
2021/05/12 05:00:54;;;;;;;30.50;15.13;;;11.70;99.90;;;10.60;100.00;100277.75;4868617;27;20038;-77
2021/05/12 05:03:18;;;;;;;29.05;14.43;;;11.80;99.90;;;10.66;100.00;100284.50;4870918;27;20128;-77
2021/05/12 05:05:41;;;;;;;24.83;14.55;;;11.80;99.90;;;10.64;100.00;100286.34;4876177;27;20156;-78
2021/05/12 05:08:09;;;;;;;29.50;14.32;;;11.80;99.90;;;10.66;100.00;100274.81;4874407;27;20376;-77
2021/05/12 05:10:32;;;;;;;30.08;15.02;;;11.90;99.90;;;10.70;100.00;100283.41;4871171;27;20049;-77
2021/05/12 05:12:55;;;;;;;28.20;14.93;;;11.90;99.90;;;10.70;100.00;100288.66;4876099;27;20124;-78
2021/05/12 05:15:21;;;;;;;28.60;14.35;;;11.80;99.90;;;10.69;100.00;100281.72;4864251;27;20054;-78
2021/05/12 05:17:44;;;;;;;26.67;13.20;;;11.90;99.90;;;10.75;100.00;100289.25;4877785;27;20048;-77
2021/05/12 05:20:13;;;;;;;27.02;13.18;;;11.90;99.90;;;10.72;100.00;100297.34;4880840;27;20041;-78
2021/05/12 05:22:37;;;;;;;27.92;13.90;;;11.90;99.90;;;10.72;100.00;100299.97;4873432;27;20046;-79
2021/05/12 05:25:00;;;;;;;23.27;12.85;;;11.90;99.90;;;10.77;99.97;100302.34;4871176;27;20045;-77
2021/05/12 05:27:24;;;;;;;26.55;12.88;;;11.90;99.90;;;10.83;100.00;100294.13;4881277;27;20049;-78
2021/05/12 05:29:47;;;;;;;25.48;12.88;;;12.00;99.90;;;10.83;99.91;100294.97;4877799;27;20055;-77
2021/05/12 05:32:12;;;;;;;26.05;12.63;;;12.00;99.90;;;10.87;99.68;100295.66;4858497;28;20488;-77
2021/05/12 05:34:37;;;;;;;23.02;12.35;;;12.00;99.90;;;10.93;99.13;100291.81;4878556;27;20046;-77
2021/05/12 05:37:00;;;;;;;28.50;13.53;;;12.10;99.90;;;10.98;99.33;100297.69;4864478;27;20049;-77
2021/05/12 05:39:23;;;;;;;25.98;12.77;;;12.20;99.90;;;11.04;98.56;100295.56;4880477;27;20071;-77
2021/05/12 05:41:46;;;;;;;27.20;12.90;;;12.20;99.90;;;11.02;98.35;100301.88;4873931;27;20052;-77
2021/05/12 05:44:16;;;;;;;25.35;13.98;;;12.10;99.90;;;11.00;98.31;100301.94;4869384;27;20090;-78
2021/05/12 05:46:39;;;;;;;29.15;15.35;;;12.10;99.90;;;10.98;98.19;100305.59;4878020;27;20408;-77
2021/05/12 05:49:04;;;;;;;32.13;14.85;;;12.10;99.90;;;11.01;98.12;100301.00;4866021;27;20863;-79
2021/05/12 05:51:27;;;;;;;35.25;15.75;;;12.00;99.90;;;10.97;98.68;100303.88;4878463;27;20038;-77
2021/05/12 05:53:51;;;;;;;29.58;14.85;;;12.10;99.90;;;10.94;98.07;100306.69;4882436;27;20057;-77
2021/05/12 05:56:14;;;;;;;35.60;15.50;;;12.00;99.90;;;10.84;98.74;100307.22;4875012;27;20053;-78
2021/05/12 05:58:37;;;;;;;31.98;15.52;;;11.90;99.90;;;10.77;98.94;100308.47;4882192;27;20059;-78
2021/05/12 06:01:00;;;;;;;41.53;16.55;;;11.90;99.90;;;10.76;99.12;100311.19;4879670;27;20045;-77
2021/05/12 06:03:23;;;;;;;38.05;17.23;;;11.80;99.90;;;10.75;99.34;100315.59;4878129;27;20089;-78
2021/05/12 06:05:53;;;;;;;32.42;15.63;;;11.90;99.90;;;10.92;99.12;100319.09;4880353;27;20052;-77
2021/05/12 06:08:17;;;;;;;32.58;15.45;;;12.10;99.90;;;11.01;99.10;100322.06;4866636;27;20775;-77
2021/05/12 06:10:42;;;;;;;36.25;15.90;;;12.20;99.90;;;11.17;98.35;100329.16;4872323;27;20430;-78
2021/05/12 06:13:05;;;;;;;31.63;15.13;;;12.30;99.90;;;11.28;98.08;100327.59;4878693;27;20045;-78
2021/05/12 06:15:29;;;;;;;40.95;15.73;;;12.40;99.90;;;11.34;97.13;100338.72;4878656;27;20045;-77
2021/05/12 06:17:53;;;;;;;33.75;16.85;;;12.50;99.90;;;11.41;97.03;100329.56;4872219;27;20049;-78
2021/05/12 06:20:16;;;;;;;31.05;14.60;;;12.50;99.90;;;11.41;96.57;100326.94;4876041;27;20041;-78
2021/05/12 06:22:40;;;;;;;31.98;14.13;;;;;;;11.58;96.80;100321.53;4872530;27;20480;-78
2021/05/12 06:25:04;;;;;;;34.78;14.13;;;12.70;99.90;;;11.63;95.88;100327.41;4867805;27;20479;-77
2021/05/12 06:27:28;;;;;;;26.27;12.60;;;12.60;99.90;;;11.68;95.04;100333.28;4870979;27;20508;-78
2021/05/12 06:29:58;;;;;;;30.35;13.60;;;12.70;99.90;;;11.74;95.49;100332.06;4879840;27;20110;-77
2021/05/12 06:32:22;;;;;;;30.83;12.60;;;12.60;99.90;;;11.67;94.90;100334.19;4865864;27;20041;-77
2021/05/12 06:34:45;;;;;;;28.33;12.52;;;12.60;99.90;;;11.69;94.35;100337.59;4875340;27;20437;-78
2021/05/12 06:37:10;;;;;;;24.67;12.18;;;12.60;99.90;;;11.68;94.96;100335.91;4880990;27;20140;-80
2021/05/12 06:39:34;;;;;;;26.25;12.05;;;;;;;11.90;94.44;100339.97;4874586;27;20045;-78
2021/05/12 06:41:57;;;;;;;26.05;12.13;;;12.90;99.90;;;12.06;94.25;100329.38;4880892;27;20057;-78
2021/05/12 06:44:29;;;;;;;29.25;12.98;;;12.90;99.90;;;12.14;93.71;100336.81;4877701;27;20059;-77
2021/05/12 06:46:52;;;;;;;24.88;12.25;;;13.10;99.90;;;12.28;93.30;100344.78;4871163;27;20407;-78
2021/05/12 06:49:15;;;;;;;21.17;10.85;;;13.20;99.90;;;12.35;92.11;100345.25;4876228;27;20049;-78
2021/05/12 06:51:48;;;;;;;23.10;10.90;;;13.20;99.90;;;12.28;92.46;100350.91;4872550;27;20403;-81
2021/05/12 06:54:13;;;;;;;26.60;10.88;;;13.20;99.90;;;12.23;92.42;100347.69;4869791;27;20129;-79
2021/05/12 06:56:37;;;;;;;25.40;9.93;;;13.10;99.90;;;12.13;91.61;100357.09;4864250;27;20605;-79
2021/05/12 06:59:00;;;;;;;28.27;10.15;;;13.00;99.90;;;12.02;92.81;100354.22;4882915;27;20072;-76
2021/05/12 07:01:24;;;;;;;19.67;9.32;;;13.00;99.90;;;12.06;93.02;100347.84;4880001;27;20060;-79
2021/05/12 07:03:48;;;;;;;20.75;8.98;;;13.10;99.90;;;12.23;92.91;100346.84;4879297;27;20457;-79
2021/05/12 07:06:11;;;;;;;19.20;8.80;;;13.20;99.90;;;12.33;92.24;100358.53;4873922;27;20057;-77
2021/05/12 07:08:34;;;;;;;24.15;10.13;;;13.30;99.90;;;12.42;91.95;100358.00;4876817;27;20507;-77
2021/05/12 07:10:57;;;;;;;19.42;9.60;;;13.50;99.90;;;12.56;91.39;100361.59;4880431;27;20053;-77
2021/05/12 07:13:21;;;;;;;25.83;9.43;;;13.70;99.90;;;12.82;91.57;100355.56;4878091;27;20145;-78
2021/05/12 07:15:44;;;;;;;18.70;8.75;;;13.80;99.90;;;13.08;90.59;100351.28;4880325;27;20053;-77
2021/05/12 07:18:07;;;;;;;18.02;8.90;;;14.00;99.90;;;13.15;89.54;100346.47;4876680;27;20048;-77
2021/05/12 07:20:31;;;;;;;18.83;8.52;;;13.60;99.90;;;12.85;89.45;100355.38;4877711;27;20123;-77
2021/05/12 07:23:01;;;;;;;18.42;8.38;;;13.70;99.90;;;13.04;88.83;100357.72;4878802;27;20045;-77
2021/05/12 07:25:24;;;;;;;17.23;7.30;;;13.80;99.90;;;13.16;88.70;100353.47;4880254;27;20052;-81
2021/05/12 07:27:47;;;;;;;20.73;7.88;;;14.00;99.90;;;13.39;87.93;100354.69;4878420;27;20060;-77
2021/05/12 07:30:16;;;;;;;14.50;7.55;;;14.00;99.90;;;13.36;87.67;100344.28;4880794;27;20049;-77
2021/05/12 07:32:39;;;;;;;13.27;6.82;;;14.10;99.90;;;13.55;87.03;100357.16;4876950;27;20069;-77
2021/05/12 07:35:04;;;;;;;14.90;7.35;;;14.30;99.90;;;13.80;86.77;100358.19;4884427;27;20481;-77
2021/05/12 07:37:27;;;;;;;14.88;7.03;;;;;;;13.71;84.49;100351.72;4881314;27;20078;-79
2021/05/12 07:39:50;;;;;;;15.35;7.20;;;14.40;99.90;;;13.69;86.51;100358.91;4876890;27;20045;-77
2021/05/12 07:42:16;;;;;;;13.82;6.68;;;14.40;99.90;;;13.68;85.32;100360.72;4879041;27;20057;-78
2021/05/12 07:44:39;;;;;;;13.75;7.32;;;14.30;99.90;;;13.73;86.47;100363.06;4877264;27;20104;-77
2021/05/12 07:47:04;;;;;;;17.17;6.82;;;14.50;99.90;;;14.09;85.91;100358.94;4878133;27;20373;-77
2021/05/12 07:49:28;;;;;;;11.98;7.03;;;15.00;99.90;;;14.35;84.55;100360.66;4881137;27;20060;-77
2021/05/12 07:51:52;;;;;;;12.38;6.60;;;15.30;99.90;;;14.51;82.76;100360.47;4876633;27;20048;-77
2021/05/12 07:54:15;;;;;;;12.32;7.18;;;15.20;99.90;;;14.44;84.12;100363.63;4876956;27;20041;-77
2021/05/12 07:56:42;;;;;;;14.15;6.85;;;15.30;99.90;;;14.47;83.41;100352.81;4875430;27;20141;-78
2021/05/12 07:59:05;;;;;;;12.73;6.78;;;15.30;99.90;;;14.57;82.89;100357.41;4876702;27;20041;-77
2021/05/12 08:01:36;;;;;;;9.98;6.43;;;15.00;99.90;;;14.37;83.01;100355.25;4875342;27;20094;-77
2021/05/12 08:04:01;;;;;;;13.40;6.70;;;;;;;14.39;83.55;100355.16;4869584;27;20399;-79
2021/05/12 08:06:24;;;;;;;15.88;7.25;;;14.60;99.90;;;13.96;84.44;100356.25;4879284;27;20053;-78
2021/05/12 08:08:47;;;;;;;14.82;7.07;;;14.60;99.90;;;14.00;84.84;100356.91;4875369;27;20050;-77
2021/05/12 08:11:10;;;;;;;14.23;7.43;;;14.70;99.90;;;14.33;84.61;100359.06;4880262;27;20045;-79
2021/05/12 08:13:34;;;;;;;12.95;6.75;;;;;;;14.44;83.30;100367.13;4878645;27;20083;-78
2021/05/12 08:15:58;;;;;;;12.73;7.15;;;14.90;99.90;;;14.46;83.66;100370.50;4878307;27;20052;-79
2021/05/12 08:18:21;;;;;;;18.98;7.28;;;15.20;99.90;;;14.58;81.95;100363.56;4873130;27;20462;-78
2021/05/12 08:20:45;;;;;;;15.48;6.82;;;15.20;99.90;;;14.68;83.49;100367.25;4880397;27;20488;-80
2021/05/12 08:23:08;;;;;;;10.48;6.38;;;15.60;99.90;;;14.69;82.08;100361.00;4880269;27;20037;-77
2021/05/12 08:25:31;;;;;;;15.32;6.38;;;15.20;99.90;;;13.82;85.15;100364.25;4880154;27;20063;-77
2021/05/12 08:27:56;;;;;;;12.60;6.22;;;15.00;99.90;;;13.95;85.78;100373.06;4877712;27;20503;-79
2021/05/12 08:30:23;;;;;;;14.02;7.07;;;14.80;99.90;;;13.97;86.72;100370.31;4878096;27;20044;-77
2021/05/12 08:32:46;;;;;;;16.30;6.60;;;15.00;99.90;;;13.83;85.94;100373.91;4870999;27;20404;-80
2021/05/12 08:35:11;;;;;;;13.68;6.10;;;14.70;99.90;;;13.49;86.32;100378.72;4875412;27;20045;-77
2021/05/12 08:37:35;;;;;;;13.15;6.32;;;;;;;13.63;87.42;100383.09;4874745;27;24026;-80
2021/05/12 08:39:58;;;;;;;14.52;6.78;;;14.90;99.90;;;14.02;87.03;100377.03;4876435;27;20055;-78
2021/05/12 08:42:22;;;;;;;12.05;5.68;;;14.90;99.90;;;14.23;84.89;100373.88;4872193;27;20061;-78
2021/05/12 08:44:50;;;;;;;21.23;6.63;;;15.00;99.90;;;14.30;84.49;100377.81;4874067;27;20056;-78
2021/05/12 08:47:17;;;;;;;13.82;6.45;;;15.10;99.90;;;14.18;85.29;100382.13;4879765;27;20045;-77
2021/05/12 08:49:41;;;;;;;13.10;6.28;;;15.40;99.90;;;14.51;84.30;100376.38;4876518;27;20056;-77
2021/05/12 08:52:06;;;;;;;12.27;6.30;;;15.60;99.90;;;14.89;82.77;100372.88;4878118;27;20429;-77
2021/05/12 08:54:31;;;;;;;12.90;7.13;;;15.50;99.90;;;14.93;82.08;100378.81;4876180;27;20049;-77
2021/05/12 08:56:56;;;;;;;12.07;6.55;;;15.80;99.90;;;15.18;81.12;100380.56;4872269;27;20041;-78
2021/05/12 08:59:24;;;;;;;12.75;6.50;;;15.70;99.90;;;14.80;80.93;100386.78;4875951;27;20055;-79
2021/05/12 09:02:11;;;;;;;14.30;6.47;;;15.50;99.90;;;14.41;83.38;100379.75;4836674;27;20109;-77
2021/05/12 09:05:14;;;;;;;16.55;6.95;;;15.50;99.90;;;14.56;83.27;100389.31;4798231;27;20439;-78
2021/05/12 09:08:16;;;;;;;18.35;7.45;;;15.10;99.90;;;14.12;84.42;100393.13;4798167;27;20045;-77
2021/05/12 09:11:03;;;;;;;15.32;6.82;;;14.90;99.90;;;14.19;84.37;100399.72;4827325;27;20041;-76
2021/05/12 09:14:04;;;;;;;9.80;5.20;;;15.10;99.90;;;13.91;85.09;100395.41;4797859;27;20053;-77
2021/05/12 09:17:13;;;;;;;10.15;4.47;;;14.70;99.90;;;13.50;88.19;100396.31;4797349;27;20493;-79
2021/05/12 09:19:40;;;;;;;10.57;5.03;;;;;;;13.56;86.52;100398.53;4827291;27;20861;-80
2021/05/12 09:22:06;;;;;;;9.90;4.70;;;14.80;99.90;;;13.95;84.75;100394.25;4821741;27;20092;-79
2021/05/12 09:25:01;;;;;;;11.80;4.65;;;14.90;99.90;;;13.60;87.66;100402.69;4803903;27;20053;-83
2021/05/12 09:28:20;;;;;;;10.90;4.85;;;14.80;99.90;;;14.05;86.11;100400.63;4819731;27;20045;-78
2021/05/12 09:30:50;;;;;;;16.77;4.97;;;15.20;99.90;;;14.26;84.77;100397.53;4799376;27;20041;-77
2021/05/12 09:33:30;;;;;;;11.02;5.35;;;15.20;99.90;;;14.28;83.15;100399.09;4780799;27;20049;-76
2021/05/12 09:36:09;;;;;;;10.98;4.90;;;15.20;99.90;;;14.32;84.12;100407.69;4804356;27;20050;-78
2021/05/12 09:38:53;;;;;;;10.90;4.97;;;15.20;99.90;;;14.25;84.86;100414.34;4793543;27;20111;-79
2021/05/12 09:41:35;;;;;;;10.85;4.80;;;15.20;99.90;;;14.31;84.38;100409.47;4777360;28;20081;-79
2021/05/12 09:44:54;;;;;;;15.88;5.32;;;15.30;99.90;;;14.24;83.18;100418.78;4760518;28;20108;-79
2021/05/12 09:48:10;;;;;;;;;;;15.20;99.90;;;14.33;83.33;100420.81;4777421;28;20041;-80
2021/05/12 09:50:59;;;;;;;10.80;5.38;;;14.90;99.90;;;13.96;85.09;100427.72;4773991;28;19938;-78
2021/05/12 09:53:41;;;;;;;36.28;8.18;;;14.70;99.90;;;13.41;87.04;100423.31;4824114;28;20114;-82
2021/05/12 09:56:41;;;;;;;16.70;7.28;;;14.40;99.90;;;13.39;87.02;100435.78;4770101;28;20058;-78
2021/05/12 09:59:45;;;;;;;12.27;6.03;;;14.50;99.90;;;13.51;86.57;100427.94;4770331;27;20076;-79